Time;durP1;ratioP1;P1;durP2;ratioP2;P2;SDS_P1;SDS_P2;PMS_P1;PMS_P2;Temp;Humidity;BMP_temperature;BMP_pressure;BME280_temperature;BME280_humidity;BME280_pressure;Samples;Min_cycle;Max_cycle;Signal;HPM_P1;HPM_P2
2022/08/07 00:00:38;;;;;;;20.13;11.48;;;;;;;16.70;100.00;96795.72;5076770;28;20223;-72
2022/08/07 00:03:04;;;;;;;22.67;11.73;;;;;;;16.68;100.00;96791.63;5075710;28;20220;-72
2022/08/07 00:05:31;;;;;;;20.00;11.15;;;;;;;16.50;100.00;96804.69;5076165;28;21316;-72
2022/08/07 00:07:57;;;;;;;20.98;11.95;;;;;;;16.50;100.00;96807.34;5080179;28;20210;-72
2022/08/07 00:10:25;;;;;;;22.52;11.27;;;;;;;16.67;100.00;96801.44;5080702;28;20826;-71
2022/08/07 00:12:52;;;;;;;19.20;10.65;;;;;;;16.48;100.00;96809.34;5079361;28;20220;-72
2022/08/07 00:15:18;;;;;;;18.65;10.45;;;;;;;16.49;100.00;96816.31;5080733;28;20645;-72
2022/08/07 00:17:44;;;;;;;19.88;10.85;;;;;;;16.42;100.00;96812.00;5080379;28;20204;-72
2022/08/07 00:20:11;;;;;;;20.05;10.85;;;;;;;16.49;100.00;96813.66;5080292;28;20215;-72
2022/08/07 00:22:38;;;;;;;16.77;10.02;;;;;;;16.63;100.00;96815.34;5080300;28;20207;-71
2022/08/07 00:25:06;;;;;;;19.17;9.90;;;;;;;16.73;100.00;96811.28;5080745;28;20199;-71
2022/08/07 00:27:34;;;;;;;18.50;10.13;;;;;;;16.89;100.00;96807.44;5080229;28;20211;-71
2022/08/07 00:30:00;;;;;;;14.38;8.70;;;;;;;16.82;100.00;96819.91;5079843;28;20758;-72
2022/08/07 00:32:27;;;;;;;13.63;8.10;;;;;;;16.81;100.00;96816.41;5080380;28;20200;-72
2022/08/07 00:34:53;;;;;;;14.38;8.15;;;;;;;16.89;100.00;96818.06;5079971;28;20196;-72
2022/08/07 00:37:20;;;;;;;14.95;8.93;;;;;;;16.84;100.00;96817.84;5079648;28;20735;-72
2022/08/07 00:39:46;;;;;;;16.40;8.20;;;;;;;16.83;100.00;96817.06;5080551;28;20203;-72
2022/08/07 00:42:13;;;;;;;16.08;8.35;;;;;;;16.86;100.00;96811.31;5079978;28;20200;-72
2022/08/07 00:44:41;;;;;;;14.55;8.93;;;;;;;16.59;100.00;96819.44;5079410;28;20223;-72
2022/08/07 00:47:08;;;;;;;16.13;9.02;;;;;;;16.64;100.00;96806.34;5080054;28;20227;-72
2022/08/07 00:49:34;;;;;;;15.77;8.00;;;;;;;16.79;100.00;96812.31;5080155;28;20287;-72
2022/08/07 00:52:01;;;;;;;14.73;8.95;;;;;;;16.65;100.00;96808.81;5079580;28;20192;-72
2022/08/07 00:54:27;;;;;;;14.45;8.57;;;;;;;16.71;99.86;96797.38;5079221;28;20651;-72
2022/08/07 00:56:54;;;;;;;15.57;9.32;;;;;;;16.64;100.00;96807.16;5076966;28;20235;-72
2022/08/07 00:59:21;;;;;;;14.98;9.10;;;;;;;16.53;100.00;96810.41;5079803;28;20453;-72
2022/08/07 01:01:49;;;;;;;12.20;7.80;;;;;;;16.51;100.00;96806.31;5079346;28;20224;-72
2022/08/07 01:04:16;;;;;;;15.32;7.28;;;;;;;16.41;100.00;96803.22;5078863;28;20234;-72
2022/08/07 01:06:44;;;;;;;14.02;8.40;;;;;;;16.43;100.00;96809.13;5079880;28;20204;-72
2022/08/07 01:09:11;;;;;;;12.15;7.40;;;;;;;16.53;100.00;96809.59;5079488;28;20200;-72
2022/08/07 01:11:40;;;;;;;10.63;6.80;;;;;;;16.57;100.00;96816.16;5079361;28;20200;-72
2022/08/07 01:14:07;;;;;;;11.70;6.97;;;;;;;16.36;100.00;96818.13;5078753;28;20231;-72
2022/08/07 01:16:33;;;;;;;10.95;6.28;;;;;;;16.36;100.00;96808.31;5079409;28;20647;-72
2022/08/07 01:19:01;;;;;;;10.68;6.03;;;;;;;16.49;100.00;96811.81;5079422;28;20637;-72
2022/08/07 01:21:29;;;;;;;10.57;6.40;;;;;;;16.44;100.00;96804.66;5079468;28;20223;-72
2022/08/07 01:23:58;;;;;;;8.98;5.57;;;;;;;16.50;99.48;96807.34;5078619;28;20234;-71
2022/08/07 01:26:25;;;;;;;8.93;5.60;;;;;;;16.31;99.49;96800.09;5078819;28;20204;-72
2022/08/07 01:28:53;;;;;;;9.35;5.95;;;;;;;16.27;100.00;96785.56;5079136;28;20210;-71
2022/08/07 01:31:26;;;;;;;9.25;5.57;;;;;;;16.25;100.00;96790.19;5079647;28;20204;-72
2022/08/07 01:33:53;;;;;;;9.57;5.38;;;;;;;16.31;99.73;96788.66;5078096;28;20245;-72
2022/08/07 01:36:20;;;;;;;11.07;5.43;;;;;;;16.26;98.45;96788.41;5079529;28;20294;-72
2022/08/07 01:38:48;;;;;;;9.13;5.00;;;;;;;16.44;98.29;96786.03;5077532;28;20204;-72
2022/08/07 01:41:18;;;;;;;6.40;4.78;;;;;;;16.60;96.47;96781.19;5078211;28;20242;-72
2022/08/07 01:43:44;;;;;;;7.13;4.95;;;;;;;16.55;96.20;96778.28;5077538;28;20219;-72
2022/08/07 01:46:11;;;;;;;9.07;5.20;;;;;;;16.58;95.56;96788.53;5079551;28;20208;-72
2022/08/07 01:48:38;;;;;;;7.30;4.75;;;;;;;16.50;95.43;96783.38;5078646;28;20200;-72
2022/08/07 01:51:08;;;;;;;7.90;4.65;;;;;;;16.55;94.57;96781.75;5078101;28;20295;-72
2022/08/07 01:53:38;;;;;;;7.38;4.53;;;;;;;16.65;94.61;96781.41;5078226;28;20228;-72
2022/08/07 01:56:10;;;;;;;7.57;4.45;;;;;;;16.67;94.26;96782.81;5075368;28;20231;-72
2022/08/07 01:58:41;;;;;;;6.15;4.40;;;;;;;16.56;94.44;96777.28;5078647;28;20215;-72
2022/08/07 02:01:12;;;;;;;8.63;4.63;;;;;;;16.56;95.08;96766.63;5078782;28;20829;-72
2022/08/07 02:03:42;;;;;;;5.82;4.03;;;;;;;16.46;95.01;96770.66;5078055;28;20226;-72
2022/08/07 02:06:14;;;;;;;6.65;4.05;;;;;;;16.58;95.67;96772.56;5078259;28;20204;-72
2022/08/07 02:08:43;;;;;;;6.15;4.25;;;;;;;16.68;93.50;96773.00;5078701;28;20206;-72
2022/08/07 02:11:11;;;;;;;7.03;4.70;;;;;;;16.51;94.23;96758.44;5078107;28;20199;-72
2022/08/07 02:13:39;;;;;;;8.27;4.28;;;;;;;16.50;94.46;96765.56;5077634;28;20220;-72
2022/08/07 02:16:08;;;;;;;6.53;4.07;;;;;;;16.62;95.40;96757.81;5076239;28;20344;-72
2022/08/07 02:18:37;;;;;;;6.10;4.15;;;;;;;16.70;96.06;96757.63;5078278;28;20207;-72
2022/08/07 02:21:06;;;;;;;5.90;4.60;;;;;;;16.79;94.97;96751.09;5077914;28;20223;-72
2022/08/07 02:23:36;;;;;;;8.00;4.35;;;;;;;16.71;94.14;96764.59;5077586;28;20658;-72
2022/08/07 02:26:05;;;;;;;7.60;4.30;;;;;;;16.80;94.63;96756.25;5078402;28;20286;-72
2022/08/07 02:28:34;;;;;;;6.18;4.63;;;;;;;16.79;93.24;96759.91;5077548;28;20207;-72
2022/08/07 02:31:03;;;;;;;7.30;4.28;;;;;;;16.83;94.51;96758.47;5078133;28;20204;-72
2022/08/07 02:33:31;;;;;;;8.40;4.13;;;;;;;16.51;94.38;96759.25;5077770;28;20223;-72
2022/08/07 02:35:59;;;;;;;8.20;4.30;;;;;;;16.50;93.85;96762.09;5077815;28;20200;-72
2022/08/07 02:38:29;;;;;;;6.78;4.55;;;;;;;16.27;95.15;96758.16;5077835;28;20210;-72
2022/08/07 02:40:56;;;;;;;5.95;4.00;;;;;;;16.40;95.93;96756.34;5077642;28;20224;-72
2022/08/07 02:43:24;;;;;;;5.25;3.90;;;;;;;16.46;95.88;96757.38;5076578;28;21091;-72
2022/08/07 02:45:54;;;;;;;5.32;4.25;;;;;;;16.46;96.06;96760.03;5078410;28;20200;-72
2022/08/07 02:48:20;;;;;;;6.93;4.95;;;;;;;16.14;95.70;96763.34;5077742;28;20212;-72
2022/08/07 02:50:50;;;;;;;10.48;4.25;;;;;;;16.28;95.79;96773.06;5077619;28;20196;-72
2022/08/07 02:53:22;;;;;;;5.82;4.28;;;;;;;16.47;95.37;96773.16;5076712;28;20227;-72
2022/08/07 02:55:50;;;;;;;5.25;3.90;;;;;;;16.12;96.33;96771.53;5075950;28;20207;-72
2022/08/07 02:58:20;;;;;;;6.40;4.45;;;;;;;16.12;96.39;96773.38;5077324;28;20664;-72
2022/08/07 03:00:51;;;;;;;8.00;5.45;;;;;;;16.20;97.01;96776.69;5077624;28;20223;-72
2022/08/07 03:03:19;;;;;;;6.32;4.63;;;;;;;16.18;96.73;96776.06;5077285;28;20242;-72
2022/08/07 03:05:47;;;;;;;7.45;5.13;;;;;;;16.22;95.78;96769.34;5076698;28;20294;-72
2022/08/07 03:08:13;;;;;;;6.35;4.43;;;;;;;16.29;95.60;96780.84;5076537;28;20196;-72
2022/08/07 03:10:41;;;;;;;7.85;4.85;;;;;;;15.93;97.64;96785.53;5077572;28;20200;-72
2022/08/07 03:13:08;;;;;;;8.52;5.18;;;;;;;16.03;98.01;96774.56;5076857;28;20220;-72
2022/08/07 03:15:34;;;;;;;7.85;5.10;;;;;;;16.09;97.35;96774.59;5076878;28;20566;-72
2022/08/07 03:18:01;;;;;;;8.70;5.07;;;;;;;16.17;97.10;96777.09;5076991;28;20199;-72
2022/08/07 03:20:29;;;;;;;8.32;5.50;;;;;;;16.28;96.96;96775.72;5076897;28;20204;-72
2022/08/07 03:22:57;;;;;;;7.15;5.20;;;;;;;16.13;97.03;96775.03;5076172;28;20708;-72
2022/08/07 03:25:24;;;;;;;8.63;5.25;;;;;;;16.03;98.01;96775.38;5077378;28;20656;-72
2022/08/07 03:27:52;;;;;;;9.65;5.93;;;;;;;16.20;97.93;96776.69;5076976;28;20200;-72
2022/08/07 03:30:19;;;;;;;10.95;5.90;;;;;;;15.98;99.37;96783.13;5076544;28;20204;-72
2022/08/07 03:32:47;;;;;;;8.38;5.65;;;;;;;16.11;99.43;96783.19;5076351;28;20220;-72
2022/08/07 03:35:19;;;;;;;8.63;6.10;;;;;;;16.14;99.44;96787.28;5076979;28;20676;-72
2022/08/07 03:37:52;;;;;;;9.15;6.28;;;;;;;16.19;99.48;96791.03;5076348;28;20215;-72
2022/08/07 03:40:20;;;;;;;9.57;5.78;;;;;;;16.05;100.00;96784.00;5076546;28;20211;-72
2022/08/07 03:42:47;;;;;;;10.18;6.43;;;;;;;15.81;100.00;96782.81;5075574;28;20687;-72
2022/08/07 03:45:14;;;;;;;11.50;6.88;;;;;;;15.87;100.00;96777.53;5076669;28;20207;-72
2022/08/07 03:47:41;;;;;;;11.55;6.97;;;;;;;15.89;100.00;96780.84;5076546;28;21242;-72
2022/08/07 03:50:08;;;;;;;11.20;7.15;;;;;;;15.84;100.00;96774.47;5076909;28;20203;-72
2022/08/07 03:52:36;;;;;;;9.63;6.20;;;;;;;15.82;100.00;96776.50;5075729;28;20207;-72
2022/08/07 03:55:05;;;;;;;12.35;7.35;;;;;;;15.98;100.00;96769.84;5073482;28;20195;-72
2022/08/07 03:57:33;;;;;;;15.38;7.35;;;;;;;15.94;100.00;96770.44;5076986;28;20699;-72
2022/08/07 04:00:00;;;;;;;12.23;7.25;;;;;;;16.03;100.00;96766.59;5076611;28;20196;-72
2022/08/07 04:02:27;;;;;;;14.77;7.68;;;;;;;16.07;100.00;96773.16;5075241;28;20220;-72
2022/08/07 04:04:54;;;;;;;12.23;7.45;;;;;;;15.96;100.00;96768.38;5077414;28;20196;-72
2022/08/07 04:07:21;;;;;;;11.77;7.07;;;;;;;15.91;100.00;96768.16;5076913;28;20207;-72
2022/08/07 04:09:49;;;;;;;13.25;7.55;;;;;;;15.99;100.00;96760.84;5076303;28;20196;-72
2022/08/07 04:12:17;;;;;;;14.93;8.25;;;;;;;16.08;100.00;96762.31;5076013;28;20568;-72
2022/08/07 04:14:45;;;;;;;15.52;8.40;;;;;;;16.01;100.00;96765.97;5076727;28;20215;-72
2022/08/07 04:17:12;;;;;;;12.45;8.00;;;;;;;16.05;100.00;96767.19;5076498;28;20210;-72
2022/08/07 04:19:40;;;;;;;14.40;8.50;;;;;;;16.01;100.00;96769.47;5076706;28;20199;-72
2022/08/07 04:22:07;;;;;;;15.77;7.95;;;;;;;16.07;100.00;96773.16;5076104;28;20912;-73
2022/08/07 04:24:34;;;;;;;14.90;8.80;;;;;;;16.23;100.00;96775.47;5075652;28;20242;-72
2022/08/07 04:27:01;;;;;;;13.68;8.05;;;;;;;16.20;100.00;96770.56;5076789;28;20196;-72
2022/08/07 04:29:29;;;;;;;13.50;8.32;;;;;;;16.29;100.00;96775.53;5076195;28;20202;-72
2022/08/07 04:31:56;;;;;;;15.82;8.48;;;;;;;16.38;100.00;96779.69;5076405;28;20200;-72
2022/08/07 04:34:24;;;;;;;12.20;7.53;;;;;;;16.45;100.00;96775.19;5075231;28;20223;-72
2022/08/07 04:36:51;;;;;;;17.10;8.90;;;;;;;16.34;100.00;96775.75;5076610;28;20200;-72
2022/08/07 04:39:17;;;;;;;15.48;8.57;;;;;;;16.38;100.00;96787.66;5076628;28;20211;-72
2022/08/07 04:41:44;;;;;;;14.82;9.02;;;;;;;16.44;100.00;96791.34;5075753;28;20708;-72
2022/08/07 04:44:11;;;;;;;13.73;8.25;;;;;;;16.55;100.00;96791.59;5075737;28;20224;-72
2022/08/07 04:46:44;;;;;;;13.23;7.97;;;;;;;16.54;100.00;96779.31;5076357;28;20208;-72
2022/08/07 04:49:16;;;;;;;14.43;8.35;;;;;;;16.70;100.00;96782.41;5076219;28;20200;-72
2022/08/07 04:51:53;;;;;;;13.63;8.20;;;;;;;16.80;100.00;96779.34;5076425;28;20200;-72
2022/08/07 04:54:24;;;;;;;14.27;8.85;;;;;;;16.73;100.00;96783.88;5079067;28;20247;-72
2022/08/07 04:56:57;;;;;;;12.18;7.32;;;;;;;16.67;100.00;96782.00;5077160;28;20215;-72
2022/08/07 04:59:33;;;;;;;15.48;7.80;;;;;;;16.59;100.00;96782.19;5080066;28;20199;-72
2022/08/07 05:02:05;;;;;;;13.40;8.10;;;;;;;16.74;100.00;96786.31;5079885;28;20219;-72
2022/08/07 05:04:40;;;;;;;11.50;7.53;;;;;;;16.79;100.00;96783.03;5079356;28;20595;-72
2022/08/07 05:07:13;;;;;;;15.02;7.28;;;;;;;16.66;100.00;96775.03;5079542;28;20214;-72
2022/08/07 05:09:46;;;;;;;11.48;7.72;;;;;;;16.77;100.00;96777.09;5080148;28;20207;-72
2022/08/07 05:12:17;;;;;;;11.73;7.90;;;;;;;16.82;100.00;96774.66;5078834;28;21154;-72
2022/08/07 05:14:47;;;;;;;13.07;7.45;;;;;;;16.67;100.00;96782.00;5079732;28;20223;-72
2022/08/07 05:17:19;;;;;;;12.75;7.88;;;;;;;16.81;100.00;96775.69;5079004;28;20209;-72
2022/08/07 05:19:49;;;;;;;16.20;7.78;;;;;;;16.68;100.00;96776.47;5079402;28;20340;-72
2022/08/07 05:22:18;;;;;;;13.93;8.18;;;;;;;16.65;100.00;96781.41;5079132;28;20230;-72
2022/08/07 05:24:46;;;;;;;12.38;6.63;;;;;;;16.76;100.00;96778.13;5079999;28;20223;-71
2022/08/07 05:27:16;;;;;;;12.80;6.97;;;;;;;16.78;100.00;96784.88;5078952;28;20215;-72
2022/08/07 05:29:45;;;;;;;12.38;7.38;;;;;;;16.88;100.00;96776.50;5078716;28;20435;-71
2022/08/07 05:32:16;;;;;;;10.15;6.43;;;;;;;16.99;100.00;96779.38;5078503;28;20196;-70
2022/08/07 05:34:45;;;;;;;13.57;7.28;;;;;;;16.95;100.00;96782.66;5078647;28;20962;-72
2022/08/07 05:37:14;;;;;;;11.20;7.07;;;;;;;17.13;100.00;96779.22;5079362;28;20196;-72
2022/08/07 05:39:41;;;;;;;11.13;6.70;;;;;;;17.20;100.00;96780.03;5079472;28;20203;-72
2022/08/07 05:42:08;;;;;;;11.35;6.75;;;;;;;17.33;100.00;96780.06;5078693;28;20228;-72
2022/08/07 05:44:37;;;;;;;10.48;6.57;;;;;;;17.29;100.00;96776.16;5078996;28;20708;-70
2022/08/07 05:47:04;;;;;;;10.82;5.90;;;;;;;17.24;100.00;96789.28;5078601;28;20200;-72
2022/08/07 05:49:32;;;;;;;7.47;5.68;;;;;;;17.37;99.60;96791.94;5078755;28;20200;-70
2022/08/07 05:51:59;;;;;;;8.68;5.78;;;;;;;17.56;98.91;96793.78;5079171;28;20195;-70
2022/08/07 05:54:26;;;;;;;11.63;5.90;;;;;;;17.47;99.69;96789.69;5077886;28;20220;-70
2022/08/07 05:56:54;;;;;;;8.95;5.28;;;;;;;17.48;98.86;96788.66;5074750;28;21140;-70
2022/08/07 05:59:22;;;;;;;6.43;4.63;;;;;;;17.57;97.40;96791.94;5079073;28;20208;-70
2022/08/07 06:01:50;;;;;;;6.50;4.38;;;;;;;17.81;96.79;96792.13;5078374;28;20223;-70
2022/08/07 06:04:19;;;;;;;8.13;4.43;;;;;;;17.93;93.87;96795.78;5075987;28;20224;-73
2022/08/07 06:06:46;;;;;;;6.00;4.38;;;;;;;18.00;92.66;96796.59;5078636;28;20208;-72
2022/08/07 06:09:15;;;;;;;7.10;4.47;;;;;;;18.34;91.36;96789.09;5078080;28;20200;-72
2022/08/07 06:11:42;;;;;;;6.10;4.20;;;;;;;18.26;90.90;96797.34;5077752;28;20199;-72
2022/08/07 06:14:08;;;;;;;8.07;4.00;;;;;;;18.21;89.39;96801.69;5077957;28;20220;-72
2022/08/07 06:16:38;;;;;;;5.82;4.28;;;;;;;18.23;90.81;96799.59;5076280;28;20202;-73
2022/08/07 06:19:05;;;;;;;7.28;3.70;;;;;;;18.36;88.63;96803.88;5077594;28;20311;-71
2022/08/07 06:21:32;;;;;;;5.38;3.58;;;;;;;18.50;86.83;96794.78;5077538;28;20215;-71
2022/08/07 06:23:59;;;;;;;7.10;3.53;;;;;;;18.35;86.02;96802.25;5077108;28;20231;-72
2022/08/07 06:26:27;;;;;;;4.90;3.20;;;;;;;18.66;86.67;96796.13;5077644;28;20200;-72
2022/08/07 06:28:55;;;;;;;4.78;3.58;;;;;;;18.58;87.21;96802.56;5077743;28;21246;-71
2022/08/07 06:31:22;;;;;;;4.28;3.13;;;;;;;18.68;84.21;96802.09;5077686;28;20212;-72
2022/08/07 06:33:49;;;;;;;4.50;2.78;;;;;;;18.96;83.11;96806.03;5076583;28;20219;-72
2022/08/07 06:36:15;;;;;;;3.80;2.95;;;;;;;19.10;81.91;96807.63;5077502;28;20854;-71
2022/08/07 06:38:43;;;;;;;4.38;3.00;;;;;;;19.24;80.13;96804.63;5077990;28;20192;-72
2022/08/07 06:41:15;;;;;;;4.30;2.75;;;;;;;19.37;80.07;96790.38;5077870;28;20196;-72
2022/08/07 06:43:45;;;;;;;2.42;2.22;;;;;;;19.61;77.86;96801.88;5076904;28;20228;-71
2022/08/07 06:46:12;;;;;;;3.13;2.40;;;;;;;19.56;76.67;96784.03;5077722;28;20196;-72
2022/08/07 06:48:38;;;;;;;3.65;2.22;;;;;;;19.47;76.18;96796.03;5076833;28;20207;-71
2022/08/07 06:51:09;;;;;;;5.47;2.53;;;;;;;19.56;75.97;96792.06;5076784;28;20894;-71
2022/08/07 06:53:39;;;;;;;3.78;2.22;;;;;;;19.67;77.41;96800.19;5076253;28;20218;-72
2022/08/07 06:56:07;;;;;;;3.42;2.22;;;;;;;19.83;76.82;96795.09;5074450;28;20212;-72
2022/08/07 06:58:36;;;;;;;2.50;2.10;;;;;;;19.82;74.42;96798.81;5076894;28;20196;-71
2022/08/07 07:01:08;;;;;;;2.13;1.80;;;;;;;19.88;72.45;96799.78;5076894;28;20200;-71
2022/08/07 07:03:39;;;;;;;3.03;1.92;;;;;;;19.86;73.56;96794.66;5076302;28;20226;-72
2022/08/07 07:06:06;;;;;;;2.40;1.85;;;;;;;19.82;73.47;96798.81;5077014;28;20199;-72
2022/08/07 07:08:33;;;;;;;3.92;2.10;;;;;;;19.93;73.03;96798.09;5076909;28;21223;-70
2022/08/07 07:10:59;;;;;;;2.63;1.60;;;;;;;20.08;71.63;96790.53;5077607;28;20197;-73
2022/08/07 07:13:33;;;;;;;2.15;1.60;;;;;;;20.28;71.54;96783.13;5076406;28;20680;-73
2022/08/07 07:16:04;;;;;;;3.58;1.80;;;;;;;20.18;70.75;96788.97;5076238;28;20667;-73
2022/08/07 07:18:39;;;;;;;1.75;1.45;;;;;;;20.11;71.68;96784.75;5077220;28;20199;-72
2022/08/07 07:21:11;;;;;;;2.05;1.48;;;;;;;20.19;70.67;96773.75;5076630;28;20214;-72
2022/08/07 07:23:38;;;;;;;2.13;1.70;;;;;;;19.97;73.49;96785.09;5075835;28;20224;-71
2022/08/07 07:26:09;;;;;;;2.88;1.70;;;;;;;20.22;72.29;96784.00;5077009;28;20578;-72
2022/08/07 07:28:39;;;;;;;1.95;1.63;;;;;;;20.16;70.44;96784.09;5076613;28;20199;-71
2022/08/07 07:31:10;;;;;;;2.33;1.58;;;;;;;20.34;68.71;96784.88;5076515;28;20208;-72
2022/08/07 07:33:39;;;;;;;4.10;1.70;;;;;;;20.50;68.89;96781.63;5076231;28;20220;-71
2022/08/07 07:36:09;;;;;;;1.65;1.55;;;;;;;20.70;68.46;96776.84;5076527;28;20854;-71
2022/08/07 07:38:35;;;;;;;2.70;1.50;;;;;;;20.63;68.15;96776.09;5076258;28;20660;-71
2022/08/07 07:41:05;;;;;;;3.60;1.90;;;;;;;20.68;69.94;96776.22;5076348;28;20207;-71
2022/08/07 07:43:34;;;;;;;2.65;1.50;;;;;;;20.70;68.46;96779.50;5076130;28;20251;-73
2022/08/07 07:46:03;;;;;;;2.20;1.40;;;;;;;20.73;69.53;96781.75;5076233;28;20196;-72
2022/08/07 07:48:31;;;;;;;1.70;1.42;;;;;;;20.70;67.53;96771.47;5076207;28;20203;-72
2022/08/07 07:51:00;;;;;;;1.77;1.35;;;;;;;20.94;69.93;96769.50;5076724;28;20207;-73
2022/08/07 07:53:28;;;;;;;2.40;1.65;;;;;;;20.96;70.06;96769.25;5074803;28;20212;-72
2022/08/07 07:55:58;;;;;;;1.50;1.40;;;;;;;21.24;66.96;96759.53;5073816;28;20568;-71
2022/08/07 07:58:28;;;;;;;2.78;1.27;;;;;;;21.31;65.60;96754.91;5076817;28;20200;-71
2022/08/07 08:00:56;;;;;;;3.42;1.50;;;;;;;21.10;65.56;96758.09;5075491;28;20199;-72
2022/08/07 08:03:23;;;;;;;2.47;1.40;;;;;;;21.31;64.96;96754.91;5075176;28;20232;-73
2022/08/07 08:05:51;;;;;;;1.83;1.30;;;;;;;21.39;63.44;96749.19;5077110;28;20195;-72
2022/08/07 08:08:19;;;;;;;2.50;1.30;;;;;;;21.47;64.79;96749.69;5075925;28;20215;-73
2022/08/07 08:10:47;;;;;;;1.40;1.30;;;;;;;21.53;61.96;96756.81;5075498;28;20200;-72
2022/08/07 08:13:15;;;;;;;1.33;1.20;;;;;;;21.86;62.75;96753.56;5075677;28;21253;-71
2022/08/07 08:15:43;;;;;;;4.05;1.30;;;;;;;22.00;61.59;96746.91;5075658;28;20196;-72
2022/08/07 08:18:11;;;;;;;1.50;1.17;;;;;;;22.24;64.52;96747.44;5074756;28;20207;-72
2022/08/07 08:20:38;;;;;;;1.42;1.27;;;;;;;22.26;62.94;96747.22;5075737;28;20196;-72
2022/08/07 08:28:42;;;;;;;1.88;1.33;;;;;;;22.65;58.67;96744.56;5078979;28;20246;-72
2022/08/07 08:31:12;;;;;;;1.35;1.23;;;;;;;22.57;57.79;96736.03;5079709;28;20214;-72
2022/08/07 08:33:41;;;;;;;2.83;1.10;;;;;;;22.46;58.15;96740.41;5079052;28;20226;-72
2022/08/07 08:36:10;;;;;;;2.42;1.25;;;;;;;22.65;59.38;96733.81;5079065;28;20771;-73
2022/08/07 08:38:39;;;;;;;1.90;1.38;;;;;;;22.60;59.98;96739.09;5080291;28;20206;-73
2022/08/07 08:41:15;;;;;;;2.10;1.58;;;;;;;22.73;60.61;96741.47;5079605;28;20204;-72
2022/08/07 08:43:54;;;;;;;3.20;1.27;;;;;;;23.02;61.13;96740.44;5078901;28;20251;-71
2022/08/07 08:46:28;;;;;;;1.77;1.25;;;;;;;23.14;57.67;96733.13;5079619;28;20290;-73
2022/08/07 08:49:01;;;;;;;2.25;1.27;;;;;;;23.28;60.83;96742.50;5079398;28;20204;-72
2022/08/07 08:51:32;;;;;;;2.13;1.50;;;;;;;23.49;60.92;96740.72;5079866;28;20578;-73
2022/08/07 08:54:08;;;;;;;1.50;1.35;;;;;;;23.50;59.89;96744.25;5079171;28;20269;-73
2022/08/07 08:56:42;;;;;;;2.95;1.42;;;;;;;23.41;58.69;96740.34;5076816;28;20203;-73
2022/08/07 08:59:18;;;;;;;4.32;1.45;;;;;;;23.17;59.86;96748.78;5079875;28;20200;-73
2022/08/07 09:01:52;;;;;;;2.42;1.20;;;;;;;23.10;59.20;96742.75;5080005;28;20211;-73
2022/08/07 09:04:29;;;;;;;2.22;1.45;;;;;;;23.19;59.03;96738.59;5078194;28;21345;-72
2022/08/07 09:07:02;;;;;;;4.93;1.30;;;;;;;23.47;60.57;96736.66;5079344;28;20671;-73
2022/08/07 09:09:48;;;;;;;3.28;1.33;;;;;;;23.48;59.85;96739.09;5079670;28;20203;-72
2022/08/07 09:12:34;;;;;;;1.67;1.40;;;;;;;23.28;58.38;96737.97;5078842;28;20611;-73
2022/08/07 09:15:12;;;;;;;3.33;1.48;;;;;;;23.42;59.32;96739.25;5079241;28;20203;-73
2022/08/07 09:17:46;;;;;;;4.57;1.33;;;;;;;23.65;57.63;96737.22;5079039;28;20214;-72
2022/08/07 09:20:23;;;;;;;2.80;1.10;;;;;;;23.64;55.59;96740.97;5079085;28;20204;-73
2022/08/07 09:22:57;;;;;;;4.38;1.40;;;;;;;23.78;54.88;96739.59;5078381;28;20239;-73
2022/08/07 09:25:34;;;;;;;1.90;1.30;;;;;;;23.48;56.88;96733.72;5078459;28;20203;-72
2022/08/07 09:28:04;;;;;;;1.90;1.40;;;;;;;23.29;53.69;96741.47;5078838;28;20199;-72
2022/08/07 09:30:48;;;;;;;1.80;1.30;;;;;;;23.61;55.53;96729.88;5078664;28;21392;-71
2022/08/07 09:33:35;;;;;;;3.10;1.40;;;;;;;23.59;55.68;96748.97;5077954;28;20220;-71
2022/08/07 09:36:11;;;;;;;1.83;1.17;;;;;;;23.63;54.64;96742.03;5078590;28;20211;-71
2022/08/07 09:38:45;;;;;;;5.45;1.63;;;;;;;23.64;54.97;96746.34;5079006;28;20214;-71
2022/08/07 09:41:21;;;;;;;3.08;1.50;;;;;;;23.53;53.82;96738.38;5078656;28;20207;-71
2022/08/07 09:44:01;;;;;;;1.92;1.38;;;;;;;23.92;53.82;96744.38;5078202;28;20223;-71
2022/08/07 09:46:52;;;;;;;4.25;1.75;;;;;;;24.42;52.66;96744.31;5078822;28;20200;-71
2022/08/07 09:49:33;;;;;;;1.33;1.23;;;;;;;24.34;52.97;96739.31;5078256;28;20211;-70
2022/08/07 09:52:06;;;;;;;3.72;1.60;;;;;;;25.04;54.69;96733.69;5078476;28;20778;-73
2022/08/07 09:54:38;;;;;;;9.27;3.50;;;;;;;25.29;53.04;96725.84;5078281;28;20302;-70
2022/08/07 09:57:44;;;;;;;2.55;1.67;;;;;;;25.59;51.51;96726.13;5075555;28;20202;-71
2022/08/07 10:00:14;;;;;;;2.10;1.30;;;;;;;25.49;52.14;96720.63;5078462;28;20206;-70
2022/08/07 10:03:05;;;;;;;1.40;1.30;;;;;;;25.20;50.72;96716.59;5077682;28;20211;-71
2022/08/07 10:06:06;;;;;;;2.13;1.40;;;;;;;24.62;48.80;96723.81;5078151;28;20210;-70
2022/08/07 10:09:01;;;;;;;1.83;1.15;;;;;;;24.40;50.42;96730.25;5078118;28;20200;-71
2022/08/07 10:11:44;;;;;;;1.55;1.35;;;;;;;24.61;48.80;96716.78;5078169;28;20216;-70
2022/08/07 10:14:25;;;;;;;2.78;1.30;;;;;;;24.45;48.99;96727.63;5077306;28;20818;-71
2022/08/07 10:17:09;;;;;;;1.90;1.30;;;;;;;24.63;49.57;96726.22;5078237;28;20680;-70
2022/08/07 10:19:46;;;;;;;1.50;1.33;;;;;;;24.43;49.93;96721.69;5077942;28;20200;-71
2022/08/07 10:22:29;;;;;;;1.50;1.40;;;;;;;24.37;48.40;96725.34;5077573;28;20192;-69
2022/08/07 10:25:07;;;;;;;2.40;1.30;;;;;;;24.34;49.15;96723.97;5077575;28;20220;-71
2022/08/07 10:27:53;;;;;;;1.35;1.13;;;;;;;24.51;51.35;96716.66;5077456;28;20203;-72
2022/08/07 10:30:27;;;;;;;1.55;1.30;;;;;;;24.62;50.21;96719.22;5077808;28;20200;-70
2022/08/07 10:33:22;;;;;;;1.38;1.20;;;;;;;24.86;47.79;96704.38;5076864;28;20224;-71
2022/08/07 10:36:04;;;;;;;4.40;1.30;;;;;;;24.93;50.73;96694.19;5078507;28;20204;-71
2022/08/07 10:38:48;;;;;;;5.88;1.52;;;;;;;24.86;49.52;96704.38;5077385;28;20413;-70
2022/08/07 10:41:23;;;;;;;2.85;1.40;;;;;;;25.07;52.40;96694.63;5077846;28;20976;-71
2022/08/07 10:43:59;;;;;;;2.15;1.70;;;;;;;25.17;50.56;96701.72;5076808;28;20223;-71
2022/08/07 10:46:29;;;;;;;2.15;1.52;;;;;;;25.42;49.02;96696.56;5076776;28;20204;-70
2022/08/07 10:49:09;;;;;;;3.00;1.58;;;;;;;25.24;49.82;96699.66;5077563;28;21234;-72
2022/08/07 10:51:42;;;;;;;3.45;1.52;;;;;;;25.43;48.94;96703.59;5077020;28;20227;-71
2022/08/07 10:54:15;;;;;;;2.20;1.40;;;;;;;25.36;47.84;96694.09;5076239;28;20715;-71
2022/08/07 10:56:53;;;;;;;1.60;1.30;;;;;;;25.21;48.50;96702.84;5075088;28;20200;-71
2022/08/07 10:59:33;;;;;;;1.27;1.10;;;;;;;25.62;48.48;96695.91;5077523;28;20215;-72
2022/08/07 11:02:05;;;;;;;3.00;1.48;;;;;;;25.60;49.91;96685.38;5076920;28;21122;-72
2022/08/07 11:04:56;;;;;;;3.58;1.35;;;;;;;25.72;46.66;96677.91;5075178;28;20224;-70
2022/08/07 11:07:45;;;;;;;2.53;1.52;;;;;;;25.73;47.32;96679.53;5077346;28;20207;-72
2022/08/07 11:10:19;;;;;;;6.82;1.60;;;;;;;25.77;46.31;96674.44;5076938;28;20224;-72
2022/08/07 11:12:52;;;;;;;4.13;1.55;;;;;;;25.67;46.50;96680.53;5076233;28;20235;-71
2022/08/07 11:15:23;;;;;;;1.77;1.45;;;;;;;26.05;46.63;96674.88;5077250;28;20223;-71
2022/08/07 11:17:57;;;;;;;3.38;1.35;;;;;;;25.96;47.03;96673.75;5076286;28;20257;-71
2022/08/07 11:20:35;;;;;;;1.90;1.40;;;;;;;25.92;50.63;96673.44;5076720;28;20199;-71
2022/08/07 11:23:11;;;;;;;1.58;1.40;;;;;;;25.84;48.09;96662.34;5076031;28;20245;-71
2022/08/07 11:25:43;;;;;;;3.78;1.35;;;;;;;25.87;48.19;96659.91;5077203;28;20276;-72
2022/08/07 11:28:15;;;;;;;1.25;1.10;;;;;;;26.13;50.78;96658.16;5076414;28;20664;-71
2022/08/07 11:30:59;;;;;;;3.25;1.33;;;;;;;26.13;47.03;96658.97;5076722;28;20200;-71
2022/08/07 11:33:32;;;;;;;3.03;1.27;;;;;;;25.59;45.70;96651.34;5075899;28;20224;-72
2022/08/07 11:36:12;;;;;;;2.08;1.40;;;;;;;25.86;48.01;96662.88;5075834;28;20215;-72
2022/08/07 11:38:46;;;;;;;2.15;1.30;;;;;;;25.53;47.63;96662.38;5077091;28;20260;-70
2022/08/07 11:41:18;;;;;;;2.13;1.20;;;;;;;25.68;47.78;96654.38;5076593;28;20191;-71
2022/08/07 11:44:01;;;;;;;2.28;1.40;;;;;;;25.78;47.02;96655.28;5075970;28;20223;-70
2022/08/07 11:46:39;;;;;;;0.95;0.93;;;;;;;25.99;46.93;96647.03;5076055;28;20573;-71
2022/08/07 11:49:21;;;;;;;2.47;2.03;;;;;;;26.32;47.05;96641.19;5075943;28;20742;-71
2022/08/07 11:52:03;;;;;;;1.77;1.40;;;;;;;26.30;49.21;96637.97;5076699;28;20231;-70